Time;durP1;ratioP1;P1;durP2;ratioP2;P2;SDS_P1;SDS_P2;PMS_P1;PMS_P2;Temp;Humidity;BMP_temperature;BMP_pressure;BME280_temperature;BME280_humidity;BME280_pressure;Samples;Min_cycle;Max_cycle;Signal;HPM_P1;HPM_P2
2021/08/11 00:00:27;;;;;;;;;;;18.80;70.60;;;;;;492025;240;1090;-47
2021/08/11 00:02:28;;;;;;;;;;;18.90;70.60;;;;;;491637;240;1109;-47
2021/08/11 00:04:29;;;;;;;;;;;18.80;70.60;;;;;;491852;240;1058;-47
2021/08/11 00:06:31;;;;;;;;;;;18.80;70.60;;;;;;492023;240;2199;-46
2021/08/11 00:08:32;;;;;;;;;;;18.80;70.50;;;;;;491592;240;1026;-47
2021/08/11 00:10:33;;;;;;;;;;;18.80;70.60;;;;;;491616;240;1152;-46
2021/08/11 00:12:35;;;;;;;;;;;18.80;70.60;;;;;;491537;240;1245;-46
2021/08/11 00:14:36;;;;;;;;;;;18.80;70.60;;;;;;491663;240;1027;-46
2021/08/11 00:16:37;;;;;;;;;;;18.80;70.80;;;;;;491448;240;1126;-46
2021/08/11 00:18:39;;;;;;;;;;;18.80;70.80;;;;;;491651;240;1094;-47
2021/08/11 00:20:40;;;;;;;;;;;18.80;70.80;;;;;;491561;240;1069;-46
2021/08/11 00:22:42;;;;;;;;;;;18.80;70.70;;;;;;491623;240;1219;-46
2021/08/11 00:24:43;;;;;;;;;;;18.70;70.70;;;;;;491585;240;1081;-47
2021/08/11 00:26:44;;;;;;;;;;;18.80;70.70;;;;;;491490;240;2175;-46
2021/08/11 00:28:46;;;;;;;;;;;18.80;70.50;;;;;;491971;240;1061;-47
2021/08/11 00:30:47;;;;;;;;;;;18.80;70.50;;;;;;491888;240;1040;-46
2021/08/11 00:32:48;;;;;;;;;;;18.80;70.50;;;;;;491650;240;1162;-47
2021/08/11 00:34:49;;;;;;;;;;;18.80;70.60;;;;;;491885;241;1113;-46
2021/08/11 00:36:51;;;;;;;;;;;18.80;70.70;;;;;;491791;240;1702;-46
2021/08/11 00:38:52;;;;;;;;;;;18.80;70.60;;;;;;491733;240;1033;-46
2021/08/11 00:40:53;;;;;;;;;;;18.80;70.60;;;;;;491599;240;1173;-46
2021/08/11 00:42:55;;;;;;;;;;;18.80;70.60;;;;;;491584;240;1106;-46
2021/08/11 00:44:56;;;;;;;;;;;18.80;70.70;;;;;;491835;240;2124;-46
2021/08/11 00:46:57;;;;;;;;;;;18.70;70.60;;;;;;491610;240;1173;-46
2021/08/11 00:48:59;;;;;;;;;;;18.70;70.70;;;;;;492032;240;984;-46
2021/08/11 00:51:00;;;;;;;;;;;18.80;70.70;;;;;;491659;240;1012;-46
2021/08/11 00:53:02;;;;;;;;;;;18.80;70.70;;;;;;491573;240;1021;-46
2021/08/11 00:55:03;;;;;;;;;;;18.70;70.70;;;;;;491809;240;1253;-46
2021/08/11 00:57:05;;;;;;;;;;;18.70;70.60;;;;;;491525;240;1186;-47
2021/08/11 00:59:06;;;;;;;;;;;18.70;70.70;;;;;;491570;240;1067;-47
2021/08/11 01:01:07;;;;;;;;;;;18.70;70.70;;;;;;491525;240;1225;-46
2021/08/11 01:03:09;;;;;;;;;;;18.70;70.60;;;;;;491677;240;1206;-47
2021/08/11 01:05:10;;;;;;;;;;;18.80;70.70;;;;;;491927;240;2179;-46
2021/08/11 01:07:11;;;;;;;;;;;18.80;70.50;;;;;;491474;240;1118;-47
2021/08/11 01:09:13;;;;;;;;;;;18.80;70.50;;;;;;491581;240;1170;-47
2021/08/11 01:11:14;;;;;;;;;;;18.80;70.50;;;;;;491484;240;1165;-47
2021/08/11 01:13:15;;;;;;;;;;;18.80;70.60;;;;;;491974;240;1074;-46
2021/08/11 01:15:17;;;;;;;;;;;18.80;70.60;;;;;;491523;240;1057;-46
2021/08/11 01:17:18;;;;;;;;;;;18.70;70.50;;;;;;491478;240;1948;-46
2021/08/11 01:19:20;;;;;;;;;;;18.70;70.60;;;;;;491978;240;1186;-47
2021/08/11 01:21:21;;;;;;;;;;;18.80;70.70;;;;;;491467;240;2173;-47
2021/08/11 01:23:23;;;;;;;;;;;18.80;70.70;;;;;;491925;240;1093;-46
2021/08/11 01:25:25;;;;;;;;;;;18.70;70.60;;;;;;491955;240;2192;-46
2021/08/11 01:27:28;;;;;;;;;;;18.70;70.60;;;;;;491601;240;1522;-46
2021/08/11 01:29:28;;;;;;;;;;;18.70;70.50;;;;;;491671;240;2284;-47
2021/08/11 01:31:29;;;;;;;;;;;18.80;70.70;;;;;;491447;240;1332;-46
2021/08/11 01:33:30;;;;;;;;;;;18.80;70.70;;;;;;491625;240;1223;-47
2021/08/11 01:35:32;;;;;;;;;;;18.70;70.70;;;;;;491936;240;1105;-46
2021/08/11 01:37:33;;;;;;;;;;;18.70;70.60;;;;;;491628;240;1252;-46
2021/08/11 01:39:35;;;;;;;;;;;18.70;70.60;;;;;;491498;240;1149;-47
2021/08/11 01:41:36;;;;;;;;;;;18.70;70.70;;;;;;491574;240;1322;-46
2021/08/11 01:43:38;;;;;;;;;;;18.70;70.70;;;;;;491983;240;1167;-46
2021/08/11 01:45:40;;;;;;;;;;;18.70;70.80;;;;;;491816;240;2176;-47
2021/08/11 01:47:41;;;;;;;;;;;18.70;70.70;;;;;;491579;240;2288;-47
2021/08/11 01:49:42;;;;;;;;;;;18.70;70.80;;;;;;491904;240;1061;-47
2021/08/11 01:51:43;;;;;;;;;;;18.70;70.70;;;;;;491771;240;1176;-47
2021/08/11 01:53:44;;;;;;;;;;;18.70;70.60;;;;;;491545;240;1073;-46
2021/08/11 01:55:46;;;;;;;;;;;18.70;70.60;;;;;;491811;240;1129;-46
2021/08/11 01:57:48;;;;;;;;;;;18.80;70.60;;;;;;491706;240;1168;-47
2021/08/11 01:59:49;;;;;;;;;;;18.70;70.60;;;;;;491579;240;1175;-46
2021/08/11 02:01:50;;;;;;;;;;;18.70;70.60;;;;;;491726;240;1552;-46
2021/08/11 02:03:51;;;;;;;;;;;18.70;70.60;;;;;;491546;240;1203;-47
2021/08/11 02:05:53;;;;;;;;;;;18.70;70.60;;;;;;491446;240;2183;-47
2021/08/11 02:07:54;;;;;;;;;;;18.70;70.80;;;;;;491614;240;1212;-47
2021/08/11 02:09:55;;;;;;;;;;;18.70;70.80;;;;;;491544;240;1071;-47
2021/08/11 02:11:57;;;;;;;;;;;18.70;70.80;;;;;;491377;240;1214;-47
2021/08/11 02:13:58;;;;;;;;;;;18.70;70.80;;;;;;491613;240;1032;-47
2021/08/11 02:15:59;;;;;;;;;;;18.70;70.80;;;;;;491604;241;1378;-46
2021/08/11 02:18:01;;;;;;;;;;;18.70;70.80;;;;;;491530;240;1141;-46
2021/08/11 02:20:02;;;;;;;;;;;18.70;70.80;;;;;;491789;240;1244;-47
2021/08/11 02:22:03;;;;;;;;;;;18.70;70.80;;;;;;491801;240;1414;-47
2021/08/11 02:24:05;;;;;;;;;;;18.60;70.90;;;;;;492109;240;1012;-46
2021/08/11 02:26:06;;;;;;;;;;;18.60;70.80;;;;;;491562;240;2199;-47
2021/08/11 02:28:07;;;;;;;;;;;18.70;70.80;;;;;;491944;240;1274;-46
2021/08/11 02:30:09;;;;;;;;;;;18.70;70.80;;;;;;491745;240;1091;-46
2021/08/11 02:32:10;;;;;;;;;;;18.60;70.80;;;;;;491413;240;1334;-46
2021/08/11 02:34:11;;;;;;;;;;;18.70;70.80;;;;;;491594;240;1195;-46
2021/08/11 02:36:12;;;;;;;;;;;18.70;71.00;;;;;;491924;240;1367;-47
2021/08/11 02:38:14;;;;;;;;;;;18.60;70.80;;;;;;491827;240;1171;-47
2021/08/11 02:40:15;;;;;;;;;;;18.70;70.80;;;;;;492019;240;1040;-47
2021/08/11 02:42:16;;;;;;;;;;;18.80;70.60;;;;;;491554;240;1217;-47
2021/08/11 02:44:18;;;;;;;;;;;19.10;69.40;;;;;;491605;240;1102;-46
2021/08/11 02:46:19;;;;;;;;;;;19.40;68.20;;;;;;491759;240;2180;-47
2021/08/11 02:48:20;;;;;;;;;;;19.60;67.30;;;;;;491580;240;1175;-47
2021/08/11 02:50:22;;;;;;;;;;;19.80;66.60;;;;;;491888;241;1084;-47
2021/08/11 02:52:23;;;;;;;;;;;20.00;66.10;;;;;;492012;240;1043;-47
2021/08/11 02:54:24;;;;;;;;;;;20.10;65.70;;;;;;492124;240;990;-47
2021/08/11 02:56:26;;;;;;;;;;;20.10;65.30;;;;;;491605;240;1375;-47
2021/08/11 02:58:27;;;;;;;;;;;20.20;65.00;;;;;;491999;240;1040;-47
2021/08/11 03:00:28;;;;;;;;;;;20.30;64.80;;;;;;492056;240;946;-47
2021/08/11 03:02:30;;;;;;;;;;;20.40;64.50;;;;;;491792;240;1120;-47
2021/08/11 03:04:31;;;;;;;;;;;20.50;64.10;;;;;;491727;240;1186;-47
2021/08/11 03:06:32;;;;;;;;;;;20.50;64.10;;;;;;492003;240;2215;-46
2021/08/11 03:08:34;;;;;;;;;;;20.60;63.90;;;;;;491609;240;1224;-47
2021/08/11 03:10:35;;;;;;;;;;;20.60;63.80;;;;;;491823;240;1066;-47
2021/08/11 03:12:37;;;;;;;;;;;20.60;63.80;;;;;;491559;240;1163;-47
2021/08/11 03:14:38;;;;;;;;;;;20.60;63.80;;;;;;491662;240;958;-47
2021/08/11 03:16:39;;;;;;;;;;;20.60;63.60;;;;;;491760;240;1123;-47
2021/08/11 03:18:41;;;;;;;;;;;20.70;63.60;;;;;;491662;240;1149;-47
2021/08/11 03:20:42;;;;;;;;;;;20.70;63.60;;;;;;491836;240;1045;-47
2021/08/11 03:22:43;;;;;;;;;;;20.70;63.40;;;;;;491987;240;1166;-47
2021/08/11 03:24:45;;;;;;;;;;;20.80;63.40;;;;;;491829;240;1197;-47
2021/08/11 03:26:46;;;;;;;;;;;20.70;63.30;;;;;;491566;240;2125;-47
2021/08/11 03:28:47;;;;;;;;;;;20.80;63.30;;;;;;491996;240;1239;-47
2021/08/11 03:30:49;;;;;;;;;;;20.90;63.10;;;;;;491990;240;1155;-47
2021/08/11 03:32:50;;;;;;;;;;;20.90;63.10;;;;;;491537;240;1206;-47
2021/08/11 03:34:52;;;;;;;;;;;20.90;63.10;;;;;;491558;240;1186;-47
2021/08/11 03:36:53;;;;;;;;;;;20.90;63.00;;;;;;491455;240;1156;-47
2021/08/11 03:38:54;;;;;;;;;;;21.00;63.00;;;;;;491638;241;1086;-47
2021/08/11 03:40:56;;;;;;;;;;;21.00;62.70;;;;;;491541;240;1337;-47
2021/08/11 03:42:57;;;;;;;;;;;21.10;62.60;;;;;;491797;240;1309;-47
2021/08/11 03:44:58;;;;;;;;;;;21.10;62.40;;;;;;491528;240;1041;-47
2021/08/11 03:47:00;;;;;;;;;;;21.20;62.20;;;;;;491648;240;2124;-47
2021/08/11 03:49:01;;;;;;;;;;;21.20;62.20;;;;;;491896;240;1140;-46
2021/08/11 03:51:02;;;;;;;;;;;21.20;62.20;;;;;;491955;240;1141;-47
2021/08/11 03:53:04;;;;;;;;;;;21.20;62.20;;;;;;491658;240;1187;-47
2021/08/11 03:55:05;;;;;;;;;;;21.20;62.20;;;;;;492024;240;1109;-47
2021/08/11 03:57:06;;;;;;;;;;;21.20;62.20;;;;;;491497;240;1569;-47
2021/08/11 03:59:08;;;;;;;;;;;21.20;62.10;;;;;;491616;240;1050;-47
2021/08/11 04:01:09;;;;;;;;;;;21.30;62.00;;;;;;491529;240;1378;-47
2021/08/11 04:03:10;;;;;;;;;;;21.30;62.00;;;;;;492011;240;1137;-47
2021/08/11 04:05:12;;;;;;;;;;;21.30;62.00;;;;;;491693;240;1169;-47
2021/08/11 04:07:13;;;;;;;;;;;21.30;62.00;;;;;;491686;240;2199;-46
2021/08/11 04:09:14;;;;;;;;;;;21.40;62.00;;;;;;491655;240;1120;-47
2021/08/11 04:11:16;;;;;;;;;;;21.40;61.90;;;;;;491569;240;1032;-47
2021/08/11 04:13:18;;;;;;;;;;;21.40;61.90;;;;;;491827;240;1022;-46
2021/08/11 04:15:18;;;;;;;;;;;21.40;61.90;;;;;;491654;240;2170;-47
2021/08/11 04:17:19;;;;;;;;;;;21.40;61.70;;;;;;491751;240;1085;-47
2021/08/11 04:19:21;;;;;;;;;;;21.40;61.50;;;;;;491862;240;1207;-47
2021/08/11 04:21:22;;;;;;;;;;;21.50;61.60;;;;;;491453;240;1048;-47
2021/08/11 04:23:25;;;;;;;;;;;21.50;61.60;;;;;;491615;241;1069;-47
2021/08/11 04:25:25;;;;;;;;;;;21.50;61.60;;;;;;491737;240;1416;-47
2021/08/11 04:27:26;;;;;;;;;;;21.50;61.70;;;;;;491964;240;2152;-47
2021/08/11 04:29:27;;;;;;;;;;;21.50;61.60;;;;;;491490;240;1085;-47
2021/08/11 04:31:29;;;;;;;;;;;21.50;61.60;;;;;;491538;240;1042;-47
2021/08/11 04:33:30;;;;;;;;;;;21.50;61.70;;;;;;491456;240;1126;-47
2021/08/11 04:35:32;;;;;;;;;;;21.60;61.60;;;;;;491681;240;1182;-47
2021/08/11 04:37:33;;;;;;;;;;;21.50;61.50;;;;;;491900;240;1448;-47
2021/08/11 04:39:34;;;;;;;;;;;21.60;61.60;;;;;;491721;240;1014;-46
2021/08/11 04:41:36;;;;;;;;;;;21.60;61.50;;;;;;491444;240;1314;-47
2021/08/11 04:43:37;;;;;;;;;;;21.60;61.60;;;;;;491497;240;1042;-47
2021/08/11 04:45:38;;;;;;;;;;;21.60;61.60;;;;;;491506;240;1460;-47
2021/08/11 04:47:40;;;;;;;;;;;21.70;61.50;;;;;;491395;240;2137;-47
2021/08/11 04:49:41;;;;;;;;;;;21.60;61.40;;;;;;491360;240;1146;-47
2021/08/11 04:51:42;;;;;;;;;;;21.60;61.50;;;;;;491211;240;1276;-47
2021/08/11 04:53:44;;;;;;;;;;;21.60;61.40;;;;;;491211;240;1073;-47
2021/08/11 04:55:45;;;;;;;;;;;21.70;61.50;;;;;;491523;240;1195;-47
2021/08/11 04:57:46;;;;;;;;;;;21.70;61.50;;;;;;491273;240;1192;-47
2021/08/11 04:59:48;;;;;;;;;;;21.60;61.40;;;;;;491506;240;1052;-47
2021/08/11 05:01:49;;;;;;;;;;;21.70;61.50;;;;;;491324;240;1139;-47
2021/08/11 05:03:50;;;;;;;;;;;21.70;61.50;;;;;;491828;240;1061;-46
2021/08/11 05:05:52;;;;;;;;;;;21.60;62.40;;;;;;491558;240;1170;-47
2021/08/11 05:07:53;;;;;;;;;;;21.60;62.60;;;;;;491723;240;2196;-47
2021/08/11 05:09:54;;;;;;;;;;;21.30;63.30;;;;;;491352;240;1094;-47
2021/08/11 05:11:55;;;;;;;;;;;20.90;64.60;;;;;;491259;240;1091;-46
2021/08/11 05:13:57;;;;;;;;;;;20.60;65.80;;;;;;491477;240;1049;-46
2021/08/11 05:15:58;;;;;;;;;;;20.30;66.70;;;;;;491281;240;1092;-46
2021/08/11 05:17:59;;;;;;;;;;;20.20;67.40;;;;;;491340;240;1308;-47
2021/08/11 05:20:01;;;;;;;;;;;20.00;67.80;;;;;;491421;240;1160;-47
2021/08/11 05:22:02;;;;;;;;;;;19.90;68.20;;;;;;491345;240;1245;-47
2021/08/11 05:24:03;;;;;;;;;;;19.90;68.50;;;;;;491273;240;1061;-47
2021/08/11 05:26:05;;;;;;;;;;;19.80;68.60;;;;;;491519;240;1064;-47
2021/08/11 05:28:06;;;;;;;;;;;19.70;68.80;;;;;;491299;240;2145;-47
2021/08/11 05:30:08;;;;;;;;;;;19.70;68.90;;;;;;491260;240;1074;-47
2021/08/11 05:32:09;;;;;;;;;;;19.60;69.10;;;;;;491224;240;1239;-46
2021/08/11 05:34:11;;;;;;;;;;;19.60;69.30;;;;;;491233;240;1063;-46
2021/08/11 05:36:12;;;;;;;;;;;19.60;69.40;;;;;;491290;240;1217;-47
2021/08/11 05:38:13;;;;;;;;;;;19.50;69.30;;;;;;491241;240;1066;-47
2021/08/11 05:40:16;;;;;;;;;;;19.50;69.50;;;;;;491383;240;1093;-47
2021/08/11 05:42:17;;;;;;;;;;;19.50;69.50;;;;;;491198;240;1939;-47
2021/08/11 05:44:18;;;;;;;;;;;19.50;69.40;;;;;;491230;240;1104;-46
2021/08/11 05:46:21;;;;;;;;;;;19.40;69.50;;;;;;491134;240;1120;-47
2021/08/11 05:48:22;;;;;;;;;;;19.40;69.50;;;;;;491143;240;2188;-47
2021/08/11 05:50:24;;;;;;;;;;;19.40;69.70;;;;;;491402;240;1215;-46
2021/08/11 05:52:25;;;;;;;;;;;19.30;69.70;;;;;;491210;240;1079;-46
2021/08/11 05:54:26;;;;;;;;;;;19.40;69.80;;;;;;491369;240;1174;-46
2021/08/11 05:56:27;;;;;;;;;;;19.30;69.80;;;;;;491193;240;1215;-47
2021/08/11 05:58:29;;;;;;;;;;;19.30;69.90;;;;;;491219;240;1076;-47
2021/08/11 06:00:30;;;;;;;;;;;19.30;69.90;;;;;;491117;240;1116;-47
2021/08/11 06:02:31;;;;;;;;;;;19.30;69.90;;;;;;491029;241;1174;-46
2021/08/11 06:04:33;;;;;;;;;;;19.30;69.90;;;;;;491197;240;1068;-46
2021/08/11 06:06:34;;;;;;;;;;;19.30;69.80;;;;;;491135;240;1207;-46
2021/08/11 06:08:35;;;;;;;;;;;19.30;69.90;;;;;;491017;240;2179;-46
2021/08/11 06:10:37;;;;;;;;;;;19.20;69.90;;;;;;491043;240;1254;-46
2021/08/11 06:12:38;;;;;;;;;;;19.20;69.90;;;;;;491029;240;1350;-46
2021/08/11 06:14:39;;;;;;;;;;;19.20;70.00;;;;;;491074;240;1246;-47
2021/08/11 06:16:42;;;;;;;;;;;19.20;70.00;;;;;;491143;240;1096;-46
2021/08/11 06:18:43;;;;;;;;;;;19.20;70.10;;;;;;491148;240;1164;-46
2021/08/11 06:20:47;;;;;;;;;;;19.20;70.10;;;;;;491239;240;1424;-47
2021/08/11 06:22:46;;;;;;;;;;;19.20;70.00;;;;;;491089;240;1946;-47
2021/08/11 06:24:47;;;;;;;;;;;19.20;70.00;;;;;;491072;240;1279;-47
2021/08/11 06:26:49;;;;;;;;;;;19.20;70.00;;;;;;491042;240;1214;-47
2021/08/11 06:28:50;;;;;;;;;;;19.20;70.00;;;;;;491058;240;2137;-46
2021/08/11 06:30:52;;;;;;;;;;;19.10;70.10;;;;;;490989;240;1250;-47
2021/08/11 06:32:53;;;;;;;;;;;19.10;70.10;;;;;;491021;240;1165;-47
2021/08/11 06:34:54;;;;;;;;;;;19.10;70.10;;;;;;491163;240;1140;-46
2021/08/11 06:36:56;;;;;;;;;;;19.10;70.10;;;;;;491043;240;1211;-46
2021/08/11 06:38:57;;;;;;;;;;;19.10;70.10;;;;;;491033;240;1240;-47
2021/08/11 06:40:58;;;;;;;;;;;19.10;70.10;;;;;;491008;240;1200;-46
2021/08/11 06:43:00;;;;;;;;;;;19.10;70.10;;;;;;490922;240;1118;-47
2021/08/11 06:45:01;;;;;;;;;;;19.10;70.10;;;;;;491396;240;1059;-47
2021/08/11 06:47:02;;;;;;;;;;;19.00;70.20;;;;;;491143;240;2192;-46
2021/08/11 06:49:04;;;;;;;;;;;19.00;70.30;;;;;;490933;240;1402;-46
2021/08/11 06:51:05;;;;;;;;;;;19.00;70.30;;;;;;490887;240;1134;-46
2021/08/11 06:53:06;;;;;;;;;;;19.00;70.30;;;;;;491028;240;1150;-46
2021/08/11 06:55:08;;;;;;;;;;;19.10;70.30;;;;;;490956;240;1059;-46
2021/08/11 06:57:09;;;;;;;;;;;19.00;70.20;;;;;;490878;240;1108;-46
2021/08/11 06:59:10;;;;;;;;;;;19.00;70.20;;;;;;490914;240;1078;-46
2021/08/11 07:01:12;;;;;;;;;;;19.00;70.20;;;;;;490800;240;1102;-46
2021/08/11 07:03:13;;;;;;;;;;;19.00;70.20;;;;;;490831;240;1192;-46
2021/08/11 07:05:14;;;;;;;;;;;19.00;70.30;;;;;;491112;240;1092;-47
2021/08/11 07:07:16;;;;;;;;;;;19.00;70.30;;;;;;490821;240;2196;-47
2021/08/11 07:09:21;;;;;;;;;;;19.00;70.30;;;;;;490874;240;1325;-46
2021/08/11 07:11:18;;;;;;;;;;;19.00;70.30;;;;;;491038;240;2337;-46
2021/08/11 07:13:20;;;;;;;;;;;19.00;70.30;;;;;;490915;241;1225;-46
2021/08/11 07:15:21;;;;;;;;;;;19.00;70.30;;;;;;490808;240;1094;-46
2021/08/11 07:17:23;;;;;;;;;;;19.00;70.30;;;;;;490817;240;1376;-46
2021/08/11 07:19:24;;;;;;;;;;;19.00;70.30;;;;;;491006;240;1111;-46
2021/08/11 07:21:25;;;;;;;;;;;19.00;70.30;;;;;;490781;240;1269;-47
2021/08/11 07:23:27;;;;;;;;;;;18.90;70.30;;;;;;490958;240;1244;-46
2021/08/11 07:25:28;;;;;;;;;;;18.90;70.30;;;;;;491698;240;877;-46
2021/08/11 07:27:29;;;;;;;;;;;19.00;70.40;;;;;;491182;240;2220;-46
2021/08/11 07:29:31;;;;;;;;;;;18.90;70.30;;;;;;491604;240;1289;-46
2021/08/11 07:31:32;;;;;;;;;;;18.90;70.30;;;;;;491530;240;1199;-47
2021/08/11 07:33:33;;;;;;;;;;;18.90;70.50;;;;;;491509;240;1115;-47
2021/08/11 07:35:34;;;;;;;;;;;18.90;70.50;;;;;;491546;240;1002;-47
2021/08/11 07:37:36;;;;;;;;;;;18.90;70.40;;;;;;491010;240;1258;-46
2021/08/11 07:39:37;;;;;;;;;;;18.90;70.60;;;;;;491168;240;1161;-47
2021/08/11 07:41:38;;;;;;;;;;;18.90;70.50;;;;;;490828;240;1243;-47
2021/08/11 07:43:40;;;;;;;;;;;18.90;70.50;;;;;;490741;240;1446;-46
2021/08/11 07:45:41;;;;;;;;;;;18.90;70.60;;;;;;490739;240;1127;-46
2021/08/11 07:47:47;;;;;;;;;;;18.90;70.50;;;;;;490570;240;2129;-46
2021/08/11 07:49:44;;;;;;;;;;;18.90;70.50;;;;;;490569;240;1882;-46
2021/08/11 07:51:45;;;;;;;;;;;18.90;70.50;;;;;;490476;240;1121;-46
2021/08/11 07:53:47;;;;;;;;;;;18.90;70.60;;;;;;490497;240;1120;-47
2021/08/11 07:55:48;;;;;;;;;;;18.90;70.60;;;;;;490676;240;1119;-47
2021/08/11 07:57:49;;;;;;;;;;;18.90;70.50;;;;;;490771;240;1346;-47
2021/08/11 07:59:51;;;;;;;;;;;18.90;70.60;;;;;;490712;240;1116;-46
2021/08/11 08:01:52;;;;;;;;;;;18.90;70.50;;;;;;490746;240;1293;-47
2021/08/11 08:03:53;;;;;;;;;;;18.90;70.60;;;;;;490770;240;1132;-46
2021/08/11 08:05:55;;;;;;;;;;;18.90;70.50;;;;;;490770;240;1195;-46
2021/08/11 08:07:56;;;;;;;;;;;18.90;70.60;;;;;;490685;240;2260;-47
2021/08/11 08:09:57;;;;;;;;;;;18.80;70.60;;;;;;490837;240;1591;-47
2021/08/11 08:11:59;;;;;;;;;;;18.80;70.60;;;;;;490703;240;1152;-46
2021/08/11 08:14:00;;;;;;;;;;;18.80;70.60;;;;;;490756;240;1244;-46
2021/08/11 08:16:01;;;;;;;;;;;18.80;70.50;;;;;;490656;240;1208;-46
2021/08/11 08:18:03;;;;;;;;;;;18.90;70.60;;;;;;490672;240;1327;-46
2021/08/11 08:20:04;;;;;;;;;;;18.80;70.70;;;;;;490793;240;1080;-46
2021/08/11 08:22:06;;;;;;;;;;;18.80;70.60;;;;;;490575;240;1317;-46
2021/08/11 08:24:07;;;;;;;;;;;18.90;70.60;;;;;;490724;240;1091;-47
2021/08/11 08:26:08;;;;;;;;;;;18.90;70.60;;;;;;490484;240;1176;-47
2021/08/11 08:28:10;;;;;;;;;;;18.90;70.60;;;;;;490497;240;2205;-46
2021/08/11 08:30:11;;;;;;;;;;;18.90;70.60;;;;;;490506;240;1221;-46
2021/08/11 08:32:12;;;;;;;;;;;18.80;70.60;;;;;;490461;240;1166;-46
2021/08/11 08:34:14;;;;;;;;;;;18.80;70.70;;;;;;490495;241;1175;-47
2021/08/11 08:36:15;;;;;;;;;;;18.80;70.80;;;;;;490604;240;1074;-46
2021/08/11 08:38:18;;;;;;;;;;;18.80;70.70;;;;;;490639;240;1229;-47
2021/08/11 08:40:18;;;;;;;;;;;18.80;70.70;;;;;;490591;240;2073;-47
2021/08/11 08:42:19;;;;;;;;;;;18.80;70.60;;;;;;490561;240;1236;-46
2021/08/11 08:44:21;;;;;;;;;;;18.80;70.60;;;;;;490592;240;1108;-47
2021/08/11 08:46:22;;;;;;;;;;;18.80;70.60;;;;;;490575;240;1078;-46
2021/08/11 08:48:23;;;;;;;;;;;18.80;70.70;;;;;;491001;240;2245;-47
2021/08/11 08:50:24;;;;;;;;;;;18.80;70.80;;;;;;491542;240;882;-46
2021/08/11 08:52:26;;;;;;;;;;;18.80;70.80;;;;;;491028;240;1176;-47
2021/08/11 08:54:27;;;;;;;;;;;18.80;70.80;;;;;;491092;240;910;-46
2021/08/11 08:56:28;;;;;;;;;;;18.80;70.80;;;;;;491023;240;1024;-46
2021/08/11 08:58:30;;;;;;;;;;;18.80;70.80;;;;;;491519;240;889;-46
2021/08/11 09:00:31;;;;;;;;;;;18.80;70.90;;;;;;491521;240;1282;-47
2021/08/11 09:02:32;;;;;;;;;;;18.80;70.80;;;;;;491069;240;1128;-46
2021/08/11 09:04:34;;;;;;;;;;;18.80;70.80;;;;;;491570;240;863;-46
2021/08/11 09:06:35;;;;;;;;;;;18.80;70.70;;;;;;491479;240;1222;-46
2021/08/11 09:08:36;;;;;;;;;;;18.80;70.80;;;;;;491041;240;2188;-47
2021/08/11 09:10:38;;;;;;;;;;;18.80;70.80;;;;;;491438;240;1066;-46
2021/08/11 09:12:39;;;;;;;;;;;18.80;70.70;;;;;;491351;240;1170;-46
2021/08/11 09:14:42;;;;;;;;;;;18.80;70.70;;;;;;490967;240;1279;-47
2021/08/11 09:16:43;;;;;;;;;;;18.70;70.80;;;;;;491447;240;980;-46
2021/08/11 09:18:44;;;;;;;;;;;18.70;70.90;;;;;;491052;240;1207;-47
2021/08/11 09:20:45;;;;;;;;;;;18.70;70.90;;;;;;491599;240;1329;-46
2021/08/11 09:22:47;;;;;;;;;;;18.60;70.70;;;;;;490730;240;1312;-46
2021/08/11 09:24:48;;;;;;;;;;;18.70;70.60;;;;;;490666;240;1108;-46
2021/08/11 09:26:49;;;;;;;;;;;18.60;70.60;;;;;;490661;240;1220;-46
2021/08/11 09:28:51;;;;;;;;;;;18.60;70.70;;;;;;490665;240;2133;-46
2021/08/11 09:30:52;;;;;;;;;;;18.60;70.70;;;;;;490735;240;1137;-46
2021/08/11 09:32:54;;;;;;;;;;;18.60;70.70;;;;;;490750;240;1203;-47
2021/08/11 09:34:56;;;;;;;;;;;18.60;70.70;;;;;;490704;240;1185;-46
2021/08/11 09:36:59;;;;;;;;;;;18.60;70.50;;;;;;490546;240;1541;-47
2021/08/11 09:38:58;;;;;;;;;;;18.60;70.60;;;;;;490638;240;1768;-47
2021/08/11 09:41:01;;;;;;;;;;;18.60;70.60;;;;;;490726;240;1161;-46
2021/08/11 09:43:00;;;;;;;;;;;18.60;70.50;;;;;;490772;240;2058;-46
2021/08/11 09:45:02;;;;;;;;;;;18.60;70.50;;;;;;490888;240;1121;-46
2021/08/11 09:47:03;;;;;;;;;;;18.60;70.50;;;;;;490728;240;1373;-46
2021/08/11 09:49:04;;;;;;;;;;;18.50;70.50;;;;;;490772;240;2192;-46
2021/08/11 09:51:07;;;;;;;;;;;18.50;70.40;;;;;;490698;240;1104;-46
2021/08/11 09:53:07;;;;;;;;;;;18.60;70.40;;;;;;491019;240;1537;-46
2021/08/11 09:55:09;;;;;;;;;;;18.50;70.50;;;;;;490764;240;1191;-47
2021/08/11 09:57:10;;;;;;;;;;;18.50;70.50;;;;;;490592;240;1232;-46
2021/08/11 09:59:11;;;;;;;;;;;18.50;70.40;;;;;;490783;240;1376;-47
2021/08/11 10:01:13;;;;;;;;;;;18.50;70.40;;;;;;490667;240;1205;-46
2021/08/11 10:03:14;;;;;;;;;;;18.50;70.30;;;;;;490710;240;1185;-46
2021/08/11 10:05:16;;;;;;;;;;;18.60;70.50;;;;;;490846;240;1076;-47
2021/08/11 10:07:17;;;;;;;;;;;18.60;70.40;;;;;;490660;240;1204;-47
2021/08/11 10:09:18;;;;;;;;;;;18.60;70.30;;;;;;490639;241;2144;-46
2021/08/11 10:11:20;;;;;;;;;;;18.60;70.20;;;;;;490601;240;1146;-47
2021/08/11 10:13:21;;;;;;;;;;;18.80;69.70;;;;;;490682;240;1143;-47
2021/08/11 10:15:22;;;;;;;;;;;19.10;68.40;;;;;;490646;240;1145;-47
2021/08/11 10:17:24;;;;;;;;;;;19.40;67.40;;;;;;490592;240;1218;-47
2021/08/11 10:19:25;;;;;;;;;;;19.60;66.50;;;;;;490715;240;1238;-46
2021/08/11 10:21:27;;;;;;;;;;;19.80;65.80;;;;;;490607;240;1295;-47
2021/08/11 10:23:27;;;;;;;;;;;19.90;65.20;;;;;;490747;240;2244;-46
2021/08/11 10:25:29;;;;;;;;;;;20.00;64.90;;;;;;490636;240;1113;-46
2021/08/11 10:27:30;;;;;;;;;;;20.10;64.70;;;;;;490535;240;1318;-47
2021/08/11 10:29:32;;;;;;;;;;;20.20;64.50;;;;;;490626;240;2192;-47
2021/08/11 10:31:33;;;;;;;;;;;20.30;64.20;;;;;;490586;240;1128;-47
2021/08/11 10:33:34;;;;;;;;;;;20.40;63.80;;;;;;490705;240;1120;-47
2021/08/11 10:35:35;;;;;;;;;;;20.50;63.70;;;;;;490701;240;1205;-47
2021/08/11 10:37:37;;;;;;;;;;;20.50;63.40;;;;;;490678;240;1090;-47
2021/08/11 10:39:39;;;;;;;;;;;20.50;63.40;;;;;;490823;240;1283;-47
2021/08/11 10:41:39;;;;;;;;;;;20.60;63.20;;;;;;490704;240;2253;-46
2021/08/11 10:43:43;;;;;;;;;;;20.60;63.10;;;;;;490842;240;1156;-47
2021/08/11 10:45:42;;;;;;;;;;;20.60;63.10;;;;;;490705;240;1792;-46
2021/08/11 10:47:43;;;;;;;;;;;20.60;63.20;;;;;;490651;240;1058;-47
2021/08/11 10:49:45;;;;;;;;;;;20.60;63.20;;;;;;490656;240;2216;-47
2021/08/11 10:51:46;;;;;;;;;;;20.70;62.90;;;;;;490594;240;1286;-47
2021/08/11 10:53:47;;;;;;;;;;;20.70;62.80;;;;;;490658;240;1337;-47
2021/08/11 10:55:49;;;;;;;;;;;20.70;62.80;;;;;;490615;240;1130;-47
2021/08/11 10:57:50;;;;;;;;;;;20.80;62.70;;;;;;490714;240;1135;-47
2021/08/11 10:59:51;;;;;;;;;;;20.80;62.60;;;;;;490653;240;1274;-47
2021/08/11 11:01:53;;;;;;;;;;;20.80;62.60;;;;;;490620;240;1195;-47
2021/08/11 11:03:54;;;;;;;;;;;20.80;62.50;;;;;;490694;240;1132;-47
2021/08/11 11:05:55;;;;;;;;;;;20.90;62.40;;;;;;490681;240;1092;-47
2021/08/11 11:07:56;;;;;;;;;;;20.90;62.40;;;;;;490542;241;1208;-47
2021/08/11 11:09:58;;;;;;;;;;;20.90;62.30;;;;;;490765;240;2196;-46
2021/08/11 11:11:59;;;;;;;;;;;21.00;62.30;;;;;;490534;240;1268;-47
2021/08/11 11:14:00;;;;;;;;;;;21.00;62.30;;;;;;490697;240;1131;-47
2021/08/11 11:16:02;;;;;;;;;;;21.00;62.20;;;;;;490657;240;1268;-47
2021/08/11 11:18:03;;;;;;;;;;;21.00;62.20;;;;;;490713;240;1205;-47
2021/08/11 11:20:04;;;;;;;;;;;21.10;62.00;;;;;;490564;240;1088;-47
2021/08/11 11:22:06;;;;;;;;;;;21.10;62.00;;;;;;490592;240;1217;-47
2021/08/11 11:24:07;;;;;;;;;;;21.10;62.00;;;;;;490537;240;1362;-47
2021/08/11 11:26:10;;;;;;;;;;;21.10;61.90;;;;;;490442;240;1357;-47
2021/08/11 11:28:11;;;;;;;;;;;21.20;61.80;;;;;;490600;240;2017;-47
2021/08/11 11:30:13;;;;;;;;;;;21.20;61.70;;;;;;490626;240;2191;-47
2021/08/11 11:32:14;;;;;;;;;;;21.20;61.80;;;;;;490601;240;1158;-47
2021/08/11 11:34:15;;;;;;;;;;;21.20;61.80;;;;;;490624;240;1055;-47
2021/08/11 11:36:17;;;;;;;;;;;21.20;61.80;;;;;;490730;240;1225;-47
2021/08/11 11:38:18;;;;;;;;;;;21.20;61.80;;;;;;490781;240;1143;-47
2021/08/11 11:40:20;;;;;;;;;;;21.30;61.70;;;;;;490756;240;1216;-46
2021/08/11 11:42:24;;;;;;;;;;;21.30;61.60;;;;;;490706;240;1149;-47
2021/08/11 11:44:24;;;;;;;;;;;21.30;61.60;;;;;;490852;240;1533;-47
2021/08/11 11:46:26;;;;;;;;;;;21.30;61.60;;;;;;490788;240;1131;-46
2021/08/11 11:48:27;;;;;;;;;;;21.30;61.60;;;;;;490757;240;1162;-47
2021/08/11 11:50:30;;;;;;;;;;;21.30;61.60;;;;;;490665;240;2188;-46
2021/08/11 11:52:29;;;;;;;;;;;21.30;61.60;;;;;;490775;240;2200;-47
2021/08/11 11:54:31;;;;;;;;;;;21.30;61.60;;;;;;490743;240;1163;-47
2021/08/11 11:56:32;;;;;;;;;;;21.30;61.70;;;;;;490513;240;1419;-47